Denver, Colorado
Traffic Map
Current Weather Conditions
Denver, Colorado
Broken Clouds
Broken Clouds
15°
Feels Like: 6°
Wind Chill: Ceiling: 11000
Heat Index: 15° Visibility: 10mi
Dew Point: Wind: 7mph
Humidity: 71% Direction: 100° (E)
Pressure: 30.1in Gusts: 0mph
Raw Report DataKBKF 042158Z 10006KT 10SM SCT030 SCT036 BKN110 BKN220 M09/M14 A3010 RMK AO2A SLP255 T10921136
Traffic Incident Summary
Active as of:
Severity:
Category:
InformationThere was an issue retrieving the traffic information for this location. Please try a different location or try again shortly.
Advertisements
Track Severe Weather on mobile